Chang Sheng — V3PK — position and weather

sailwx.info

Track history (hours):
 
Tides and Currents Weather Stations Pressure Air Temp Water Temp Dewpoint Dewpoint Depression Visibility Wind Speed Wind Dir Waves Ship Positions

Chang Sheng

Last reported at 2017-Jun-23 15:06 UTC. Time now 2017-Jun-24 18:54 UTC.
Position N 34°58' E 140°08'.

Length 86 m; draft 4.2 m.

Type: Cargo ship. MMSI: 312161000.

Date/timePositionNaut miles runAvg speedWind from/ knotsBaromVisibWave heightAir tempDewpointWater temp
2017-Jun-23 15:06N 34°58' E 140°08'260 8.4
2017-Jun-22 08:10N 34°03' E 134°59'1 9.2
2017-Jun-22 08:00N 34°04' E 134°59'5 9.4
2017-Jun-22 07:30N 34°09' E 134°59'510.5
2017-Jun-22 07:00N 34°14' E 134°59'12 9.5
2017-Jun-22 05:43N 34°26' E 135°00'2 9.6
2017-Jun-22 05:30N 34°28' E 135°01'5 9.4
2017-Jun-22 05:00N 34°33' E 135°03'5 9.7
2017-Jun-22 04:30N 34°37' E 135°01'  
2017-Jun-18 15:56N 37°39' E 122°50'4 9.4
2017-Jun-18 15:30N 37°41' E 122°45'5 9.5
2017-Jun-18 15:00N 37°44' E 122°40'10 9.9
2017-Jun-18 14:00N 37°49' E 122°29'5 9.9
2017-Jun-18 13:30N 37°51' E 122°24'1310.0
2017-Jun-18 12:13N 37°58' E 122°10'2 9.8
2017-Jun-18 11:59N 37°59' E 122°08'27 9.3
2017-Jun-18 09:03N 38°13' E 121°38'4 9.1
2017-Jun-18 08:35N 38°15' E 121°34'1 9.3
2017-Jun-18 08:30N 38°16' E 121°33'  
2017-Jun-14 09:44N 38°58' E 120°51'2 9.1
2017-Jun-14 09:30N 38°55' E 120°51'23 9.5
2017-Jun-14 07:05N 38°34' E 121°02'1 9.7
2017-Jun-14 06:58N 38°34' E 121°03'6 9.2
2017-Jun-14 06:22N 38°31' E 121°09'9 8.8
2017-Jun-14 05:21N 38°26' E 121°19'11 8.4
2017-Jun-14 04:05N 38°20' E 121°30'1 8.0
2017-Jun-14 04:00N 38°20' E 121°30'5 8.1
2017-Jun-14 03:26N 38°17' E 121°35'4 8.2
2017-Jun-14 03:00N 38°15' E 121°38'4 8.0
2017-Jun-14 02:30N 38°12' E 121°42'4 7.8
2017-Jun-14 02:00N 38°10' E 121°46'4 7.9
2017-Jun-14 01:30N 38°07' E 121°50'4 7.9
2017-Jun-14 01:00N 38°05' E 121°54'4 7.8
2017-Jun-14 00:30N 38°03' E 121°58'4 8.0
2017-Jun-14 00:00N 37°60' E 122°02'4 8.1
2017-Jun-13 23:30N 37°58' E 122°06'4 7.9
2017-Jun-13 23:00N 37°55' E 122°10'5 7.8
2017-Jun-13 22:25N 37°52' E 122°15'3 7.6
2017-Jun-13 22:00N 37°50' E 122°18'4 7.5
2017-Jun-13 21:30N 37°48' E 122°21'4 7.2
2017-Jun-13 21:00N 37°46' E 122°25'3 6.9
2017-Jun-13 20:30N 37°44' E 122°29'3 6.7
2017-Jun-13 20:00N 37°42' E 122°32'4 6.7
2017-Jun-13 19:28N 37°40' E 122°35'3 6.4
2017-Jun-13 19:00N 37°38' E 122°38'3 6.4
2017-Jun-13 18:30N 37°36' E 122°42'  
Track history (hours):
 
Tides and Currents Weather Stations Pressure Air Temp Water Temp Dewpoint Dewpoint Depression Visibility Wind Speed Wind Dir Waves Ship Positions

Chang Sheng

Last reported at 2017-Jun-23 15:06 UTC. Time now 2017-Jun-24 18:54 UTC.
Position N 34°58' E 140°08'.

Length 86 m; draft 4.2 m.

Type: Cargo ship. MMSI: 312161000.

Date/timePositionNaut miles runAvg speedWind from/ knotsBaromVisibWave heightAir tempDewpointWater temp
2017-Jun-23 15:06N 34°58' E 140°08'260 8.4
2017-Jun-22 08:10N 34°03' E 134°59'1 9.2
2017-Jun-22 08:00N 34°04' E 134°59'5 9.4
2017-Jun-22 07:30N 34°09' E 134°59'510.5
2017-Jun-22 07:00N 34°14' E 134°59'12 9.5
2017-Jun-22 05:43N 34°26' E 135°00'2 9.6
2017-Jun-22 05:30N 34°28' E 135°01'5 9.4
2017-Jun-22 05:00N 34°33' E 135°03'5 9.7
2017-Jun-22 04:30N 34°37' E 135°01'  
2017-Jun-18 15:56N 37°39' E 122°50'4 9.4
2017-Jun-18 15:30N 37°41' E 122°45'5 9.5
2017-Jun-18 15:00N 37°44' E 122°40'10 9.9
2017-Jun-18 14:00N 37°49' E 122°29'5 9.9
2017-Jun-18 13:30N 37°51' E 122°24'1310.0
2017-Jun-18 12:13N 37°58' E 122°10'2 9.8
2017-Jun-18 11:59N 37°59' E 122°08'27 9.3
2017-Jun-18 09:03N 38°13' E 121°38'4 9.1
2017-Jun-18 08:35N 38°15' E 121°34'1 9.3
2017-Jun-18 08:30N 38°16' E 121°33'  
2017-Jun-14 09:44N 38°58' E 120°51'2 9.1
2017-Jun-14 09:30N 38°55' E 120°51'23 9.5
2017-Jun-14 07:05N 38°34' E 121°02'1 9.7
2017-Jun-14 06:58N 38°34' E 121°03'6 9.2
2017-Jun-14 06:22N 38°31' E 121°09'9 8.8
2017-Jun-14 05:21N 38°26' E 121°19'11 8.4
2017-Jun-14 04:05N 38°20' E 121°30'1 8.0
2017-Jun-14 04:00N 38°20' E 121°30'5 8.1
2017-Jun-14 03:26N 38°17' E 121°35'4 8.2
2017-Jun-14 03:00N 38°15' E 121°38'4 8.0
2017-Jun-14 02:30N 38°12' E 121°42'4 7.8
2017-Jun-14 02:00N 38°10' E 121°46'4 7.9
2017-Jun-14 01:30N 38°07' E 121°50'4 7.9
2017-Jun-14 01:00N 38°05' E 121°54'4 7.8
2017-Jun-14 00:30N 38°03' E 121°58'4 8.0
2017-Jun-14 00:00N 37°60' E 122°02'4 8.1
2017-Jun-13 23:30N 37°58' E 122°06'4 7.9
2017-Jun-13 23:00N 37°55' E 122°10'5 7.8
2017-Jun-13 22:25N 37°52' E 122°15'3 7.6
2017-Jun-13 22:00N 37°50' E 122°18'4 7.5
2017-Jun-13 21:30N 37°48' E 122°21'4 7.2
2017-Jun-13 21:00N 37°46' E 122°25'3 6.9
2017-Jun-13 20:30N 37°44' E 122°29'3 6.7
2017-Jun-13 20:00N 37°42' E 122°32'4 6.7
2017-Jun-13 19:28N 37°40' E 122°35'3 6.4
2017-Jun-13 19:00N 37°38' E 122°38'3 6.4
2017-Jun-13 18:30N 37°36' E 122°42'  

Dump ship's entire track history